Time;durP1;ratioP1;P1;durP2;ratioP2;P2;SDS_P1;SDS_P2;PMS_P1;PMS_P2;Temp;Humidity;BMP_temperature;BMP_pressure;BME280_temperature;BME280_humidity;BME280_pressure;Samples;Min_cycle;Max_cycle;Signal;HPM_P1;HPM_P2
2023/03/17 00:00:09;;;;;;;0.10;0.10;;;;;;;17.85;47.78;100877.34;2097508;28;20048;-66
2023/03/17 00:01:15;;;;;;;0.10;0.10;;;;;;;17.85;47.97;100871.13;2097939;28;20048;-66
2023/03/17 00:02:18;;;;;;;0.10;0.10;;;;;;;17.85;47.82;100868.38;2099377;28;20055;-65
2023/03/17 00:03:24;;;;;;;0.10;0.10;;;;;;;17.86;47.87;100857.06;2101962;28;20059;-66
2023/03/17 00:04:26;;;;;;;0.10;0.10;;;;;;;17.84;47.94;100861.34;2096600;28;20053;-66
2023/03/17 00:05:32;;;;;;;0.10;0.10;;;;;;;17.86;47.96;100867.19;2097595;28;20541;-66
2023/03/17 00:06:35;;;;;;;0.10;0.10;;;;;;;17.84;48.22;100866.81;2096903;28;20048;-65
2023/03/17 00:07:41;;;;;;;0.00;0.00;;;;;;;17.84;47.78;100867.59;2098339;28;20135;-66
2023/03/17 00:08:45;;;;;;;0.03;0.03;;;;;;;17.84;47.85;100875.78;2097851;28;20056;-66
2023/03/17 00:09:48;;;;;;;0.10;0.10;;;;;;;17.85;48.13;100879.31;2097012;28;20060;-66
2023/03/17 00:10:50;;;;;;;0.10;0.10;;;;;;;17.85;48.02;100882.03;2097381;28;20103;-65
2023/03/17 00:11:53;;;;;;;0.10;0.10;;;;;;;17.84;48.04;100894.91;2097210;28;20056;-65
2023/03/17 00:12:55;;;;;;;0.10;0.10;;;;;;;17.85;47.85;100906.63;2098155;28;20056;-65
2023/03/17 00:13:57;;;;;;;0.10;0.10;;;;;;;17.85;47.88;100915.56;2099508;28;20051;-66
2023/03/17 00:15:01;;;;;;;0.00;0.00;;;;;;;17.85;47.87;100915.56;2096841;28;20063;-65
2023/03/17 00:16:07;;;;;;;0.25;0.25;;;;;;;17.85;48.07;100917.56;2104000;28;20040;-65
2023/03/17 00:17:13;;;;;;;0.00;0.00;;;;;;;17.84;48.05;100913.22;2097683;28;20143;-65
2023/03/17 00:18:18;;;;;;;0.00;0.00;;;;;;;17.85;47.82;100909.34;2095974;28;20413;-65
2023/03/17 00:19:25;;;;;;;0.10;0.10;;;;;;;17.84;47.87;100908.56;2096773;28;20080;-65
2023/03/17 00:20:31;;;;;;;0.03;0.03;;;;;;;17.83;47.93;100907.00;2096953;28;20475;-65
2023/03/17 00:21:34;;;;;;;0.10;0.10;;;;;;;17.84;47.70;100902.31;2095973;28;20048;-66
2023/03/17 00:22:38;;;;;;;0.10;0.10;;;;;;;17.84;48.08;100902.31;2096512;28;20056;-66
2023/03/17 00:23:44;;;;;;;0.10;0.10;;;;;;;17.81;47.76;100884.75;2099045;28;20059;-65
2023/03/17 00:24:47;;;;;;;0.05;0.05;;;;;;;17.83;47.94;100896.09;2096375;28;20159;-65
2023/03/17 00:25:52;;;;;;;0.10;0.10;;;;;;;17.83;48.09;100884.38;2099583;28;20052;-66
2023/03/17 00:26:55;;;;;;;0.10;0.10;;;;;;;17.82;47.80;100894.50;2099270;28;20051;-64
2023/03/17 00:27:57;;;;;;;0.05;0.05;;;;;;;17.84;47.81;100894.13;2098582;28;20139;-65
2023/03/17 00:29:01;;;;;;;0.00;0.00;;;;;;;17.83;47.91;100887.91;2098183;28;20223;-66
2023/03/17 00:30:06;;;;;;;0.03;0.03;;;;;;;17.85;47.57;100890.22;2097307;28;20517;-65
2023/03/17 00:31:14;;;;;;;0.10;0.10;;;;;;;17.82;47.86;100883.56;2104293;28;20447;-66
2023/03/17 00:32:18;;;;;;;0.08;0.08;;;;;;;17.83;48.06;100893.34;2096664;28;20097;-66
2023/03/17 00:33:24;;;;;;;0.10;0.10;;;;;;;17.83;47.92;100892.56;2095786;28;20414;-65
2023/03/17 00:34:27;;;;;;;0.03;0.03;;;;;;;17.82;48.19;100897.25;2096027;28;20453;-66
2023/03/17 00:35:31;;;;;;;0.15;0.15;;;;;;;17.83;47.69;100898.03;2101703;28;20056;-65
2023/03/17 00:36:33;;;;;;;0.10;0.10;;;;;;;17.82;47.82;100894.50;2100753;28;20048;-65
2023/03/17 00:37:38;;;;;;;0.05;0.05;;;;;;;17.82;47.96;100894.50;2098259;28;20106;-65
2023/03/17 00:38:41;;;;;;;0.10;0.10;;;;;;;17.81;48.10;100892.94;2096365;28;20088;-67
2023/03/17 00:39:44;;;;;;;0.00;0.00;;;;;;;17.82;47.71;100891.00;2097713;28;20048;-66
2023/03/17 00:40:47;;;;;;;0.05;0.05;;;;;;;17.82;48.06;100883.56;2096897;28;20049;-65
2023/03/17 00:41:49;;;;;;;0.10;0.10;;;;;;;17.83;47.81;100879.69;2096322;28;20091;-66
2023/03/17 00:42:52;;;;;;;0.10;0.10;;;;;;;17.83;47.99;100887.09;2098463;28;20162;-65
2023/03/17 00:43:56;;;;;;;0.10;0.10;;;;;;;17.83;47.67;100884.38;2096831;28;20129;-66
2023/03/17 00:44:57;;;;;;;0.03;0.03;;;;;;;17.82;47.97;100877.34;2098018;28;20704;-66
2023/03/17 00:46:11;;;;;;;0.00;0.00;;;;;;;17.80;47.57;100896.88;2096375;28;20080;-66
2023/03/17 00:47:14;;;;;;;0.00;0.00;;;;;;;17.80;47.81;100888.66;2101949;28;20086;-66
2023/03/17 00:48:18;;;;;;;0.10;0.10;;;;;;;17.83;47.54;100881.63;2098074;28;20056;-65
2023/03/17 00:49:22;;;;;;;0.10;0.10;;;;;;;17.83;47.71;100889.84;2097634;28;20537;-66
2023/03/17 00:50:27;;;;;;;0.10;0.10;;;;;;;17.84;47.72;100894.13;2096023;28;20059;-65
2023/03/17 00:51:29;;;;;;;0.10;0.10;;;;;;;17.82;47.94;100882.81;2098359;28;20402;-65
2023/03/17 00:52:33;;;;;;;0.10;0.10;;;;;;;17.82;47.92;100885.56;2096508;28;20114;-65
2023/03/17 00:53:35;;;;;;;0.10;0.10;;;;;;;17.82;47.67;100878.13;2096678;28;20056;-66
2023/03/17 00:54:38;;;;;;;0.10;0.10;;;;;;;17.82;47.65;100878.13;2097431;28;20072;-65
2023/03/17 00:55:42;;;;;;;0.10;0.10;;;;;;;17.84;47.77;100875.00;2097704;28;20394;-66
2023/03/17 00:56:46;;;;;;;0.10;0.10;;;;;;;17.83;47.90;100874.25;2097958;28;20057;-67
2023/03/17 00:57:48;;;;;;;0.10;0.10;;;;;;;17.83;47.63;100876.19;2096924;28;20074;-66
2023/03/17 00:58:51;;;;;;;0.10;0.10;;;;;;;17.82;47.64;100878.13;2096976;28;20660;-66
2023/03/17 00:59:53;;;;;;;0.10;0.10;;;;;;;17.82;47.58;100880.09;2096502;28;20117;-66
2023/03/17 01:00:56;;;;;;;0.03;0.03;;;;;;;17.84;47.60;100875.00;2098879;28;20044;-66
2023/03/17 01:02:00;;;;;;;0.10;0.10;;;;;;;17.84;47.58;100873.06;2095381;28;20062;-66
2023/03/17 01:03:03;;;;;;;0.10;0.10;;;;;;;17.83;47.86;100870.72;2103542;28;20044;-66
2023/03/17 01:04:05;;;;;;;0.10;0.10;;;;;;;17.83;47.58;100870.72;2100077;28;20464;-66
2023/03/17 01:05:09;;;;;;;0.10;0.10;;;;;;;17.83;47.56;100871.50;2096043;28;20114;-66
2023/03/17 01:06:13;;;;;;;0.08;0.08;;;;;;;17.83;47.51;100873.44;2098012;28;20049;-66
2023/03/17 01:07:16;;;;;;;0.10;0.10;;;;;;;17.82;47.68;100867.19;2098554;28;20531;-66
2023/03/17 01:08:21;;;;;;;0.10;0.10;;;;;;;17.82;47.47;100869.16;2096708;28;20071;-65
2023/03/17 01:09:26;;;;;;;0.10;0.10;;;;;;;17.83;47.86;100857.84;2097884;28;20124;-66
2023/03/17 01:10:29;;;;;;;0.10;0.10;;;;;;;17.82;47.81;100866.44;2096053;28;20061;-65
2023/03/17 01:11:32;;;;;;;0.10;0.10;;;;;;;17.83;47.81;100859.78;2097813;28;20657;-66
2023/03/17 01:12:34;;;;;;;0.10;0.10;;;;;;;17.80;47.63;100857.84;2098465;28;20185;-65
2023/03/17 01:13:37;;;;;;;0.10;0.10;;;;;;;17.83;47.75;100862.53;2096492;28;20059;-66
2023/03/17 01:14:40;;;;;;;0.10;0.10;;;;;;;17.83;47.77;100862.53;2099592;28;20052;-66
2023/03/17 01:15:46;;;;;;;0.10;0.10;;;;;;;17.82;47.68;100852.78;2096834;28;20131;-65
2023/03/17 01:16:48;;;;;;;0.10;0.10;;;;;;;17.82;47.86;100852.78;2098411;28;20516;-65
2023/03/17 01:17:52;;;;;;;0.10;0.10;;;;;;;17.83;47.47;100848.88;2095497;28;20102;-65
2023/03/17 01:18:54;;;;;;;0.10;0.10;;;;;;;17.82;47.79;100839.88;2098671;28;20544;-65
2023/03/17 01:19:58;;;;;;;0.10;0.10;;;;;;;17.82;47.33;100848.06;2095543;28;20053;-66
2023/03/17 01:21:00;;;;;;;0.08;0.08;;;;;;;17.82;47.54;100850.03;2087614;28;20129;-65
2023/03/17 01:22:03;;;;;;;0.08;0.08;;;;;;;17.83;47.53;100857.06;2099291;28;20056;-66
2023/03/17 01:23:05;;;;;;;0.10;0.10;;;;;;;17.81;47.72;100846.53;2094908;28;20051;-66
2023/03/17 01:24:08;;;;;;;0.10;0.10;;;;;;;17.82;47.77;100855.50;2101233;28;20474;-65
2023/03/17 01:25:11;;;;;;;0.10;0.10;;;;;;;17.83;47.56;100843.41;2096310;28;20044;-67
2023/03/17 01:26:14;;;;;;;0.10;0.10;;;;;;;17.82;47.42;100848.06;2097565;28;20044;-65
2023/03/17 01:27:17;;;;;;;0.10;0.10;;;;;;;17.84;47.50;100847.69;2098268;28;20052;-65
2023/03/17 01:28:20;;;;;;;0.05;0.05;;;;;;;17.83;47.56;100846.13;2098199;28;20044;-65
2023/03/17 01:29:22;;;;;;;0.05;0.05;;;;;;;17.84;47.75;100847.69;2096255;28;20063;-66
2023/03/17 01:30:27;;;;;;;0.10;0.10;;;;;;;17.84;47.70;100843.00;2095766;28;20048;-66
2023/03/17 01:31:30;;;;;;;0.10;0.10;;;;;;;17.82;47.61;100844.59;2096169;28;20157;-66
2023/03/17 01:32:33;;;;;;;0.10;0.10;;;;;;;17.82;47.75;100850.03;2103144;28;20151;-66
2023/03/17 01:33:37;;;;;;;0.10;0.10;;;;;;;17.84;47.47;100847.69;2101876;28;20489;-65
2023/03/17 01:34:39;;;;;;;0.10;0.10;;;;;;;17.82;47.60;100845.34;2102631;28;20048;-65
2023/03/17 01:35:44;;;;;;;0.10;0.10;;;;;;;17.84;47.30;100842.22;2102279;28;20055;-66
2023/03/17 01:36:47;;;;;;;0.10;0.10;;;;;;;17.82;47.47;100847.31;2103108;28;20047;-65
2023/03/17 01:37:49;;;;;;;0.10;0.10;;;;;;;17.82;47.41;100839.13;2102749;28;20052;-65
2023/03/17 01:38:52;;;;;;;0.10;0.10;;;;;;;17.82;47.61;100834.41;2103079;28;20056;-65
2023/03/17 01:39:54;;;;;;;0.10;0.10;;;;;;;17.82;47.61;100844.59;2101147;28;20052;-65
2023/03/17 01:40:57;;;;;;;0.20;0.20;;;;;;;17.83;47.47;100840.66;2097992;28;20236;-66
2023/03/17 01:42:00;;;;;;;0.10;0.10;;;;;;;17.83;47.32;100841.47;2095847;28;20052;-66
2023/03/17 01:43:17;;;;;;;0.00;0.00;;;;;;;17.79;47.36;100839.91;2097309;28;20159;-66
2023/03/17 01:44:19;;;;;;;0.00;0.00;;;;;;;17.79;47.64;100835.19;2102451;28;20059;-66
2023/03/17 01:45:59;;;;;;;0.00;0.00;;;;;;;17.73;47.64;100844.16;2102374;28;20350;-66
2023/03/17 01:47:01;;;;;;;0.10;0.10;;;;;;;17.74;47.82;100837.53;2096308;28;20056;-65
2023/03/17 01:48:04;;;;;;;0.00;0.00;;;;;;;17.78;47.70;100838.31;2099533;28;20059;-66
2023/03/17 01:49:18;;;;;;;0.03;0.03;;;;;;;17.76;47.78;100837.91;2103478;28;20064;-66
2023/03/17 01:50:21;;;;;;;0.00;0.00;;;;;;;17.76;47.41;100835.97;2095951;28;20554;-66
2023/03/17 01:51:30;;;;;;;0.10;0.10;;;;;;;17.77;47.86;100831.31;2095876;28;20060;-65
2023/03/17 01:52:35;;;;;;;0.10;0.10;;;;;;;17.78;47.48;100830.13;2096968;28;20136;-65
2023/03/17 01:53:38;;;;;;;0.03;0.03;;;;;;;17.79;47.63;100834.44;2095941;28;20125;-66
2023/03/17 01:54:44;;;;;;;0.10;0.10;;;;;;;17.80;47.65;100822.34;2097015;28;20060;-66
2023/03/17 01:55:50;;;;;;;0.10;0.10;;;;;;;17.78;47.61;100821.94;2087165;28;20544;-64
2023/03/17 01:56:56;;;;;;;0.10;0.10;;;;;;;17.79;47.33;100818.81;2095353;28;20056;-65
2023/03/17 01:57:58;;;;;;;0.10;0.10;;;;;;;17.78;47.52;100817.25;2096559;28;20123;-66
2023/03/17 01:59:04;;;;;;;0.10;0.10;;;;;;;17.78;47.62;100821.94;2096855;28;20143;-66
2023/03/17 02:00:09;;;;;;;0.10;0.10;;;;;;;17.79;47.74;100813.34;2095777;28;20091;-66
2023/03/17 02:01:15;;;;;;;0.10;0.10;;;;;;;17.76;47.42;100818.81;2098256;28;20059;-69
2023/03/17 02:02:21;;;;;;;0.00;0.00;;;;;;;17.79;47.66;100807.13;2100218;28;20082;-66
2023/03/17 02:03:25;;;;;;;0.00;0.00;;;;;;;17.78;47.50;100806.34;2087717;28;20128;-66
2023/03/17 02:04:29;;;;;;;0.00;0.00;;;;;;;17.79;47.28;100807.88;2096593;28;20052;-66
2023/03/17 02:05:32;;;;;;;0.00;0.00;;;;;;;17.79;47.59;100809.84;2100701;28;20055;-66
2023/03/17 02:06:34;;;;;;;0.00;0.00;;;;;;;17.78;47.47;100805.53;2092633;28;20052;-66
2023/03/17 02:07:41;;;;;;;0.08;0.08;;;;;;;17.78;47.23;100809.06;2095569;28;20137;-66
2023/03/17 02:08:43;;;;;;;0.05;0.05;;;;;;;17.79;47.33;100802.44;2096584;28;20071;-66
2023/03/17 02:09:46;;;;;;;0.10;0.10;;;;;;;17.79;47.30;100807.13;2097252;28;20052;-65
2023/03/17 02:10:49;;;;;;;0.00;0.00;;;;;;;17.78;47.54;100805.53;2097861;28;20048;-66
2023/03/17 02:11:53;;;;;;;0.10;0.10;;;;;;;17.79;47.42;100815.31;2094903;28;20118;-65
2023/03/17 02:12:59;;;;;;;0.10;0.10;;;;;;;17.80;47.50;100820.41;2093972;28;20053;-66
2023/03/17 02:14:01;;;;;;;0.00;0.00;;;;;;;17.78;47.56;100827.41;2095420;28;20057;-66
2023/03/17 02:15:05;;;;;;;0.10;0.10;;;;;;;17.79;47.37;100828.97;2095046;28;20452;-66
2023/03/17 02:16:13;;;;;;;0.00;0.00;;;;;;;17.78;47.66;100821.94;2087768;28;20087;-66
2023/03/17 02:17:16;;;;;;;0.08;0.08;;;;;;;17.79;47.57;100820.78;2095318;28;21033;-66
2023/03/17 02:18:20;;;;;;;0.40;0.40;;;;;;;17.79;47.28;100812.59;2095943;28;20056;-65
2023/03/17 02:19:23;;;;;;;0.00;0.00;;;;;;;17.77;47.28;100821.16;2096070;28;20482;-66
2023/03/17 02:21:11;;;;;;;0.00;0.00;;;;;;;17.71;47.71;100821.94;2097925;28;20082;-65
2023/03/17 02:22:19;;;;;;;0.00;0.00;;;;;;;17.70;47.60;100821.16;2098802;28;20048;-66
2023/03/17 02:23:22;;;;;;;0.00;0.00;;;;;;;17.74;47.33;100827.38;2100524;28;20096;-66
2023/03/17 02:24:31;;;;;;;0.08;0.08;;;;;;;17.75;47.31;100825.44;2096857;28;20047;-65
2023/03/17 02:25:35;;;;;;;0.10;0.10;;;;;;;17.74;47.51;100832.84;2097048;28;20056;-65
2023/03/17 02:26:39;;;;;;;0.00;0.00;;;;;;;17.76;47.46;100824.25;2098213;28;20481;-66
2023/03/17 02:27:45;;;;;;;0.10;0.10;;;;;;;17.76;47.44;100824.25;2096240;28;20501;-65
2023/03/17 02:28:47;;;;;;;0.03;0.03;;;;;;;17.76;47.43;100825.06;2098653;28;20574;-66
2023/03/17 02:29:50;;;;;;;0.10;0.10;;;;;;;17.77;47.51;100815.69;2096822;28;20048;-66
2023/03/17 02:30:52;;;;;;;0.10;0.10;;;;;;;17.77;47.68;100814.91;2099316;28;20497;-66
2023/03/17 02:31:55;;;;;;;0.05;0.05;;;;;;;17.76;47.35;100807.88;2099096;28;20079;-66
2023/03/17 02:32:57;;;;;;;0.10;0.10;;;;;;;17.77;47.31;100804.75;2096406;28;20608;-66
2023/03/17 02:34:00;;;;;;;0.10;0.10;;;;;;;17.77;47.40;100804.00;2097191;28;20056;-65
2023/03/17 02:35:02;;;;;;;0.10;0.10;;;;;;;17.78;47.56;100811.00;2096798;28;20501;-66
2023/03/17 02:36:06;;;;;;;0.10;0.10;;;;;;;17.78;47.48;100816.47;2103020;28;20052;-66
2023/03/17 02:37:09;;;;;;;0.05;0.05;;;;;;;17.78;47.37;100811.78;2095885;28;20049;-66
2023/03/17 02:38:12;;;;;;;0.10;0.10;;;;;;;17.79;47.39;100807.13;2097634;28;20071;-66
2023/03/17 02:39:15;;;;;;;0.10;0.10;;;;;;;17.78;47.42;100800.09;2096131;28;20131;-66
2023/03/17 02:40:17;;;;;;;0.10;0.10;;;;;;;17.78;47.31;100805.53;2100008;28;20496;-66
2023/03/17 02:41:20;;;;;;;0.20;0.20;;;;;;;17.79;47.40;100801.66;2101137;28;20524;-66
2023/03/17 02:42:22;;;;;;;0.10;0.10;;;;;;;17.78;47.32;100806.34;2095395;28;20061;-65
2023/03/17 02:43:25;;;;;;;0.10;0.10;;;;;;;17.79;47.34;100802.44;2096857;28;20089;-65
2023/03/17 02:44:30;;;;;;;0.10;0.10;;;;;;;17.78;47.33;100811.00;2094200;28;20091;-66
2023/03/17 02:45:33;;;;;;;0.00;0.00;;;;;;;17.78;47.46;100811.78;2087022;28;20049;-65
2023/03/17 02:46:35;;;;;;;0.05;0.05;;;;;;;17.79;47.46;100815.31;2101330;28;20159;-65
2023/03/17 02:47:38;;;;;;;0.00;0.00;;;;;;;17.78;47.37;100816.47;2100043;28;20067;-66
2023/03/17 02:48:41;;;;;;;0.15;0.15;;;;;;;17.78;47.31;100814.53;2095536;28;20060;-65
2023/03/17 02:49:45;;;;;;;0.10;0.10;;;;;;;17.78;47.16;100817.25;2098018;28;20114;-66
2023/03/17 02:50:46;;;;;;;0.10;0.10;;;;;;;17.78;47.39;100814.53;2101464;28;20059;-65
2023/03/17 02:51:49;;;;;;;0.10;0.10;;;;;;;17.78;47.20;100806.34;2101580;28;20052;-66
2023/03/17 02:52:51;;;;;;;0.10;0.10;;;;;;;17.78;47.21;100798.16;2103255;28;20508;-67
2023/03/17 02:53:55;;;;;;;0.10;0.10;;;;;;;17.80;47.63;100814.13;2099353;28;20127;-65
2023/03/17 02:54:57;;;;;;;0.10;0.10;;;;;;;17.79;47.55;100812.59;2097856;28;20056;-66
2023/03/17 02:56:01;;;;;;;0.10;0.10;;;;;;;17.78;47.46;100798.16;2100084;28;20086;-65
2023/03/17 02:57:04;;;;;;;0.10;0.10;;;;;;;17.78;47.35;100800.09;2105082;28;20055;-64
2023/03/17 02:58:06;;;;;;;0.10;0.10;;;;;;;17.79;47.10;100804.41;2098737;28;20044;-65
2023/03/17 02:59:09;;;;;;;0.10;0.10;;;;;;;17.79;47.23;100807.13;2098197;28;20840;-66
2023/03/17 03:00:13;;;;;;;0.10;0.10;;;;;;;17.80;47.22;100808.69;2105057;28;20667;-66
2023/03/17 03:01:17;;;;;;;0.10;0.10;;;;;;;17.79;47.27;100809.84;2104567;28;20116;-65
2023/03/17 03:02:18;;;;;;;0.10;0.10;;;;;;;17.78;47.40;100803.59;2103096;28;20063;-66
2023/03/17 03:03:21;;;;;;;0.20;0.20;;;;;;;17.78;47.42;100795.41;2100584;28;20494;-66
2023/03/17 03:04:23;;;;;;;0.05;0.05;;;;;;;17.79;47.15;100807.13;2098942;28;20174;-66
2023/03/17 03:05:27;;;;;;;0.08;0.08;;;;;;;17.79;47.26;100791.50;2104979;28;20056;-65
2023/03/17 03:06:30;;;;;;;0.03;0.03;;;;;;;17.78;47.32;100789.94;2100645;28;20052;-65
2023/03/17 03:07:33;;;;;;;0.10;0.10;;;;;;;17.77;47.29;100788.38;2097681;28;20044;-65
2023/03/17 03:08:35;;;;;;;0.10;0.10;;;;;;;17.79;47.48;100794.22;2097921;28;20353;-65
2023/03/17 03:09:40;;;;;;;0.03;0.03;;;;;;;17.80;47.15;100798.53;2099338;28;20106;-66
2023/03/17 03:10:42;;;;;;;0.10;0.10;;;;;;;17.78;47.03;100795.41;2100849;28;20101;-65
2023/03/17 03:11:45;;;;;;;0.10;0.10;;;;;;;17.78;47.18;100792.69;2097513;28;20064;-66
2023/03/17 03:12:47;;;;;;;0.10;0.10;;;;;;;17.78;47.12;100800.09;2097383;28;20055;-66
2023/03/17 03:13:50;;;;;;;0.10;0.10;;;;;;;17.79;47.41;100801.66;2098292;28;20057;-66
2023/03/17 03:14:52;;;;;;;0.10;0.10;;;;;;;17.79;47.28;100804.41;2096802;28;20056;-65
2023/03/17 03:15:55;;;;;;;0.00;0.00;;;;;;;17.79;46.97;100796.97;2101111;28;20095;-66
2023/03/17 03:16:57;;;;;;;0.10;0.10;;;;;;;17.79;47.36;100801.66;2103802;28;20047;-66
2023/03/17 03:18:00;;;;;;;0.10;0.10;;;;;;;17.79;47.01;100805.16;2104016;28;20090;-65
2023/03/17 03:19:02;;;;;;;0.10;0.10;;;;;;;17.79;47.19;100802.44;2098348;28;20131;-65
2023/03/17 03:20:06;;;;;;;0.10;0.10;;;;;;;17.79;47.25;100807.13;2099138;28;20507;-65
2023/03/17 03:21:08;;;;;;;0.08;0.08;;;;;;;17.80;47.21;100808.69;2097182;28;20386;-65
2023/03/17 03:22:11;;;;;;;0.10;0.10;;;;;;;17.79;47.12;100807.13;2097333;28;20052;-65
2023/03/17 03:23:15;;;;;;;0.10;0.10;;;;;;;17.80;47.28;100805.94;2100331;28;20536;-65
2023/03/17 03:24:17;;;;;;;0.10;0.10;;;;;;;17.79;47.09;100804.41;2097877;28;20106;-65
2023/03/17 03:25:20;;;;;;;0.10;0.10;;;;;;;17.80;47.40;100798.53;2099136;28;20524;-65
2023/03/17 03:26:23;;;;;;;0.10;0.10;;;;;;;17.79;47.13;100788.00;2100900;28;20116;-66
2023/03/17 03:27:25;;;;;;;0.10;0.10;;;;;;;17.78;47.28;100798.16;2097553;28;20064;-66
2023/03/17 03:28:28;;;;;;;0.10;0.10;;;;;;;17.79;47.07;100796.97;2097671;28;20053;-65
2023/03/17 03:29:30;;;;;;;0.10;0.10;;;;;;;17.78;47.31;100792.69;2098846;28;20524;-65
2023/03/17 03:30:33;;;;;;;0.05;0.05;;;;;;;17.78;47.16;100800.09;2096509;28;20459;-66
2023/03/17 03:31:35;;;;;;;0.10;0.10;;;;;;;17.78;47.25;100800.88;2098938;28;20428;-66
2023/03/17 03:32:38;;;;;;;0.00;0.00;;;;;;;17.78;47.32;100800.88;2101285;28;20055;-65
2023/03/17 03:33:41;;;;;;;0.10;0.10;;;;;;;17.78;47.45;100800.88;2097144;28;20056;-66
2023/03/17 03:34:43;;;;;;;0.10;0.10;;;;;;;17.78;47.31;100797.34;2098196;28;20413;-65
2023/03/17 03:35:46;;;;;;;0.10;0.10;;;;;;;17.79;47.17;100807.13;2096977;28;20063;-66
2023/03/17 03:36:47;;;;;;;0.05;0.05;;;;;;;17.80;46.88;100797.75;2097958;28;20056;-65
2023/03/17 03:37:50;;;;;;;0.10;0.10;;;;;;;17.79;47.19;100794.22;2095876;28;20041;-65
2023/03/17 03:38:52;;;;;;;0.10;0.10;;;;;;;17.79;47.26;100796.19;2088092;28;20563;-77
2023/03/17 03:39:55;;;;;;;0.10;0.10;;;;;;;17.79;47.29;100807.13;2089566;28;20559;-76
2023/03/17 03:41:00;;;;;;;0.10;0.10;;;;;;;17.79;47.49;100807.13;2101374;28;20039;-77
2023/03/17 03:42:02;;;;;;;0.10;0.10;;;;;;;17.78;47.32;100802.81;2098585;28;20469;-78
2023/03/17 03:43:06;;;;;;;0.10;0.10;;;;;;;17.77;47.16;100796.56;2099953;28;20053;-77
2023/03/17 03:44:23;;;;;;;0.10;0.10;;;;;;;17.76;47.13;100796.94;2098804;28;20088;-77
2023/03/17 03:45:27;;;;;;;0.10;0.10;;;;;;;17.76;47.33;100791.50;2097618;28;20135;-77
2023/03/17 03:46:30;;;;;;;0.10;0.10;;;;;;;17.76;47.29;100794.22;2098166;28;20498;-77
2023/03/17 03:47:33;;;;;;;0.10;0.10;;;;;;;17.77;47.20;100802.03;2099576;28;20076;-77
2023/03/17 03:48:34;;;;;;;0.10;0.10;;;;;;;17.77;47.14;100798.53;2096989;28;20048;-77
2023/03/17 03:49:37;;;;;;;0.13;0.13;;;;;;;17.77;47.52;100801.28;2100714;28;20052;-77
2023/03/17 03:50:39;;;;;;;0.10;0.10;;;;;;;17.77;47.13;100810.22;2102926;28;20048;-77
2023/03/17 03:51:42;;;;;;;0.10;0.10;;;;;;;17.78;47.25;100806.34;2097300;28;20464;-77
2023/03/17 03:52:44;;;;;;;0.10;0.10;;;;;;;17.78;47.18;100800.09;2099842;28;20402;-77
2023/03/17 03:53:48;;;;;;;0.10;0.10;;;;;;;17.78;47.27;100800.09;2100383;28;20105;-77
2023/03/17 03:54:49;;;;;;;0.10;0.10;;;;;;;17.77;47.50;100798.53;2097566;28;20476;-77
2023/03/17 03:55:52;;;;;;;0.10;0.10;;;;;;;17.78;47.29;100802.81;2097800;28;20056;-77
2023/03/17 03:56:56;;;;;;;0.10;0.10;;;;;;;17.78;47.03;100806.34;2097084;28;20052;-77
2023/03/17 03:57:59;;;;;;;0.13;0.13;;;;;;;17.77;47.31;100802.03;2097704;28;20879;-77
2023/03/17 03:59:01;;;;;;;0.05;0.05;;;;;;;17.77;47.24;100801.28;2099190;28;20048;-77
2023/03/17 04:00:06;;;;;;;0.10;0.10;;;;;;;17.73;47.06;100786.81;2097094;28;20739;-76
2023/03/17 04:01:17;;;;;;;0.10;0.10;;;;;;;17.75;47.34;100796.19;2097451;28;20123;-77
2023/03/17 04:02:20;;;;;;;0.10;0.10;;;;;;;17.76;47.48;100794.22;2097655;28;20463;-77
2023/03/17 04:03:22;;;;;;;0.10;0.10;;;;;;;17.77;47.39;100793.06;2097583;28;20056;-77
2023/03/17 04:04:25;;;;;;;0.10;0.10;;;;;;;17.77;47.03;100790.34;2099315;28;20060;-76
2023/03/17 04:05:28;;;;;;;0.10;0.10;;;;;;;17.77;47.17;100790.34;2101483;28;20083;-76
2023/03/17 04:06:30;;;;;;;0.10;0.10;;;;;;;17.77;47.23;100776.69;2104439;28;20116;-76
2023/03/17 04:07:32;;;;;;;0.10;0.10;;;;;;;17.77;47.21;100780.19;2098025;28;20052;-76
2023/03/17 04:08:34;;;;;;;0.10;0.10;;;;;;;17.76;47.22;100786.03;2101669;28;20067;-76
2023/03/17 04:09:38;;;;;;;0.10;0.10;;;;;;;17.77;47.43;100782.16;2104003;28;20556;-77
2023/03/17 04:10:39;;;;;;;0.00;0.00;;;;;;;17.77;47.19;100777.44;2102804;28;20052;-77
2023/03/17 04:11:42;;;;;;;0.00;0.00;;;;;;;17.77;47.21;100784.88;2097693;28;20562;-77
2023/03/17 04:12:45;;;;;;;0.05;0.05;;;;;;;17.78;47.19;100784.50;2099595;28;20135;-77
2023/03/17 04:13:48;;;;;;;0.00;0.00;;;;;;;17.76;47.23;100783.31;2098970;28;20063;-77
2023/03/17 04:14:50;;;;;;;0.00;0.00;;;;;;;17.76;47.19;100781.34;2098510;28;20052;-77
2023/03/17 04:15:53;;;;;;;0.10;0.10;;;;;;;17.77;47.42;100776.69;2097693;28;20062;-77
2023/03/17 04:16:55;;;;;;;0.10;0.10;;;;;;;17.77;47.36;100782.16;2097127;28;20048;-77
2023/03/17 04:17:58;;;;;;;0.10;0.10;;;;;;;17.77;47.12;100773.97;2095813;28;20592;-77
2023/03/17 04:19:00;;;;;;;0.00;0.00;;;;;;;17.77;47.31;100771.22;2096965;28;20076;-77
2023/03/17 04:20:03;;;;;;;0.20;0.20;;;;;;;17.77;47.08;100777.44;2098819;28;20512;-76
2023/03/17 04:21:07;;;;;;;0.08;0.08;;;;;;;17.76;46.92;100783.31;2104500;28;20044;-78
2023/03/17 04:22:12;;;;;;;0.32;0.32;;;;;;;17.78;47.09;100780.97;2098403;28;20044;-77
2023/03/17 04:23:14;;;;;;;0.00;0.00;;;;;;;17.77;47.23;100791.09;2098927;28;20060;-77
2023/03/17 04:24:16;;;;;;;0.00;0.00;;;;;;;17.78;47.06;100789.16;2096753;28;20045;-77
2023/03/17 04:25:18;;;;;;;0.08;0.08;;;;;;;17.77;47.02;100776.69;2098422;28;20516;-77
2023/03/17 04:26:21;;;;;;;0.00;0.00;;;;;;;17.77;47.14;100779.41;2100910;28;20146;-76
2023/03/17 04:27:23;;;;;;;0.10;0.10;;;;;;;17.77;47.11;100782.16;2101718;28;20131;-76
2023/03/17 04:28:27;;;;;;;0.00;0.00;;;;;;;17.79;47.12;100777.09;2097353;28;20044;-76
2023/03/17 04:29:30;;;;;;;0.08;0.08;;;;;;;17.77;47.17;100773.97;2103364;28;20436;-76
2023/03/17 04:30:33;;;;;;;0.00;0.00;;;;;;;17.77;47.13;100771.22;2096914;28;20230;-77
2023/03/17 04:31:36;;;;;;;0.10;0.10;;;;;;;17.76;47.11;100770.44;2099635;28;20057;-77
2023/03/17 04:32:39;;;;;;;0.10;0.10;;;;;;;17.76;46.91;100762.25;2096594;28;20061;-77
2023/03/17 04:33:41;;;;;;;0.10;0.10;;;;;;;17.76;46.92;100769.66;2096935;28;20056;-77
2023/03/17 04:34:44;;;;;;;0.03;0.03;;;;;;;17.76;47.14;100770.44;2097146;28;20052;-77
2023/03/17 04:35:46;;;;;;;0.00;0.00;;;;;;;17.77;47.22;100774.72;2096889;28;20053;-76
2023/03/17 04:36:49;;;;;;;0.00;0.00;;;;;;;17.77;47.14;100776.69;2099177;28;20083;-77
2023/03/17 04:37:51;;;;;;;0.00;0.00;;;;;;;17.76;47.05;100775.91;2097901;28;20051;-76
2023/03/17 04:38:54;;;;;;;0.10;0.10;;;;;;;17.75;46.92;100768.09;2097225;28;20058;-76
2023/03/17 04:39:57;;;;;;;0.00;0.00;;;;;;;17.77;46.75;100768.50;2097639;28;20522;-76
2023/03/17 04:40:59;;;;;;;0.00;0.00;;;;;;;17.76;47.10;100773.16;2099051;28;20416;-76
2023/03/17 04:42:01;;;;;;;0.15;0.15;;;;;;;17.76;47.08;100775.91;2096855;28;20056;-76
2023/03/17 04:43:03;;;;;;;0.20;0.20;;;;;;;17.76;47.03;100772.38;2096672;28;20054;-76
2023/03/17 04:44:08;;;;;;;0.10;0.10;;;;;;;17.76;47.04;100766.91;2099350;28;20059;-77
2023/03/17 04:45:13;;;;;;;0.03;0.03;;;;;;;17.78;47.04;100772.78;2103221;28;20489;-77
2023/03/17 04:46:16;;;;;;;0.10;0.10;;;;;;;17.76;46.83;100772.38;2098388;28;20528;-77
2023/03/17 04:47:18;;;;;;;0.10;0.10;;;;;;;17.76;47.10;100764.97;2096454;28;20058;-76
2023/03/17 04:48:20;;;;;;;0.10;0.10;;;;;;;17.76;47.05;100780.56;2096451;28;20060;-76
2023/03/17 04:49:22;;;;;;;0.10;0.10;;;;;;;17.74;47.17;100777.47;2097731;28;20052;-77
2023/03/17 04:50:26;;;;;;;0.10;0.10;;;;;;;17.76;46.89;100775.09;2098222;28;20048;-77
2023/03/17 04:51:28;;;;;;;0.10;0.10;;;;;;;17.75;47.01;100785.28;2098684;28;20480;-76
2023/03/17 04:52:30;;;;;;;0.10;0.10;;;;;;;17.77;47.07;100779.41;2099431;28;20087;-76
2023/03/17 04:53:33;;;;;;;0.05;0.05;;;;;;;17.77;47.30;100779.41;2096340;28;20574;-76
2023/03/17 04:54:35;;;;;;;0.10;0.10;;;;;;;17.76;47.05;100777.84;2098596;28;20067;-76
2023/03/17 04:55:37;;;;;;;0.10;0.10;;;;;;;17.71;46.98;100767.34;2097183;28;20056;-76